Time;durP1;ratioP1;P1;durP2;ratioP2;P2;SDS_P1;SDS_P2;PMS_P1;PMS_P2;Temp;Humidity;BMP_temperature;BMP_pressure;BME280_temperature;BME280_humidity;BME280_pressure;Samples;Min_cycle;Max_cycle;Signal;HPM_P1;HPM_P2
2023/05/09 00:00:30;;;;;;;18.98;11.80;;;;;;;;;;7389983;19;20414;-68
2023/05/09 00:02:55;;;;;;;16.70;11.73;;;;;;;;;;7370263;19;20010;-68
2023/05/09 00:05:21;;;;;;;17.80;12.70;;;;;;;;;;7370704;19;20027;-68
2023/05/09 00:07:47;;;;;;;19.80;13.02;;;;;;;;;;7378998;19;20015;-68
2023/05/09 00:10:12;;;;;;;18.13;12.38;;;;;;;;;;7388931;19;20014;-68
2023/05/09 00:12:38;;;;;;;21.27;12.90;;;;;;;;;;7407708;19;20023;-68
2023/05/09 00:15:06;;;;;;;18.83;12.65;;;;;;;;;;7374816;19;20047;-68
2023/05/09 00:17:32;;;;;;;17.48;12.35;;;;;;;;;;7373286;19;20014;-68
2023/05/09 00:20:00;;;;;;;20.42;12.13;;;;;;;;;;7372809;19;20009;-68
2023/05/09 00:22:26;;;;;;;18.08;13.18;;;;;;;;;;7372320;19;20053;-68
2023/05/09 00:24:51;;;;;;;17.35;13.20;;;;;;;;;;7370246;19;20010;-68
2023/05/09 00:27:17;;;;;;;18.67;11.95;;;;;;;;;;7390969;19;20021;-68
2023/05/09 00:29:42;;;;;;;19.08;12.35;;;;;;;;;;7371498;19;20028;-67
2023/05/09 00:32:08;;;;;;;19.45;13.23;;;;;;;;;;7371041;19;20003;-68
2023/05/09 00:34:34;;;;;;;19.98;13.02;;;;;;;;;;7369170;19;20006;-68
2023/05/09 00:36:59;;;;;;;20.08;12.63;;;;;;;;;;7367846;19;20006;-68
2023/05/09 00:39:25;;;;;;;20.00;12.23;;;;;;;;;;7390090;19;20021;-68
2023/05/09 00:41:51;;;;;;;18.27;13.13;;;;;;;;;;7369532;19;20096;-68
2023/05/09 00:44:16;;;;;;;20.15;13.20;;;;;;;;;;7369932;19;20073;-68
2023/05/09 00:46:42;;;;;;;18.00;12.35;;;;;;;;;;7374226;19;20034;-68
2023/05/09 00:49:07;;;;;;;18.05;12.88;;;;;;;;;;7376383;19;20011;-67
2023/05/09 00:51:35;;;;;;;18.17;12.73;;;;;;;;;;7398665;19;20472;-68
2023/05/09 00:54:01;;;;;;;19.27;13.20;;;;;;;;;;7377844;19;20419;-67
2023/05/09 00:56:26;;;;;;;22.70;14.57;;;;;;;;;;7376331;19;20031;-67
2023/05/09 00:58:52;;;;;;;19.08;13.07;;;;;;;;;;7375301;19;20417;-67
2023/05/09 01:01:17;;;;;;;18.35;13.10;;;;;;;;;;7377526;19;20010;-68
2023/05/09 01:03:43;;;;;;;20.05;13.05;;;;;;;;;;7377629;19;20002;-68
2023/05/09 01:07:06;;;;;;;19.88;13.50;;;;;;;;;;7398292;19;20457;-67
2023/05/09 01:09:42;;;;;;;19.13;13.57;;;;;;;;;;7373813;19;20017;-68
2023/05/09 01:12:26;;;;;;;20.23;12.73;;;;;;;;;;7373590;19;20006;-68
2023/05/09 01:15:04;;;;;;;20.55;12.88;;;;;;;;;;7373437;19;20047;-67
2023/05/09 01:17:52;;;;;;;21.95;14.48;;;;;;;;;;7373432;19;20019;-68
2023/05/09 01:20:33;;;;;;;19.77;13.23;;;;;;;;;;7374964;19;20051;-68
2023/05/09 01:23:11;;;;;;;18.75;12.77;;;;;;;;;;7375985;19;20088;-68
2023/05/09 01:25:50;;;;;;;20.45;14.02;;;;;;;;;;7375523;19;20529;-69
2023/05/09 01:29:00;;;;;;;19.38;12.95;;;;;;;;;;7372737;19;20010;-69
2023/05/09 01:31:25;;;;;;;21.30;13.65;;;;;;;;;;7374098;19;20021;-68
2023/05/09 01:33:55;;;;;;;19.73;13.00;;;;;;;;;;7383136;19;20449;-68
2023/05/09 01:36:22;;;;;;;20.08;13.43;;;;;;;;;;7412776;19;20405;-68
2023/05/09 01:38:51;;;;;;;20.50;13.77;;;;;;;;;;7377917;19;20003;-68
2023/05/09 01:41:18;;;;;;;20.20;13.18;;;;;;;;;;7379674;19;20018;-68
2023/05/09 01:43:45;;;;;;;22.13;14.77;;;;;;;;;;7378605;19;20027;-68
2023/05/09 01:46:11;;;;;;;21.67;13.82;;;;;;;;;;7381583;19;20003;-68
2023/05/09 01:48:37;;;;;;;20.35;14.15;;;;;;;;;;7406094;19;20066;-68
2023/05/09 01:51:04;;;;;;;21.85;15.25;;;;;;;;;;7374524;19;20011;-68
2023/05/09 01:53:30;;;;;;;25.88;15.13;;;;;;;;;;7374453;19;20006;-68
2023/05/09 01:55:57;;;;;;;23.27;15.30;;;;;;;;;;7373681;19;20002;-68
2023/05/09 01:58:24;;;;;;;20.58;15.20;;;;;;;;;;7370792;19;20473;-68
2023/05/09 02:00:50;;;;;;;22.17;14.07;;;;;;;;;;7374565;19;20003;-69
2023/05/09 02:03:16;;;;;;;21.55;14.18;;;;;;;;;;7396503;19;20532;-68
2023/05/09 02:05:42;;;;;;;20.27;14.27;;;;;;;;;;7374708;19;20003;-68
2023/05/09 02:08:08;;;;;;;21.88;14.63;;;;;;;;;;7374020;19;20014;-68
2023/05/09 02:10:35;;;;;;;23.23;13.98;;;;;;;;;;7374658;19;20007;-68
2023/05/09 02:13:00;;;;;;;20.33;14.20;;;;;;;;;;7374076;19;20011;-69
2023/05/09 02:15:27;;;;;;;22.25;14.55;;;;;;;;;;7396711;19;20420;-68
2023/05/09 02:17:53;;;;;;;22.80;14.73;;;;;;;;;;7371530;19;20007;-68
2023/05/09 02:20:18;;;;;;;19.58;14.00;;;;;;;;;;7373822;19;20013;-68
2023/05/09 02:22:44;;;;;;;22.42;14.07;;;;;;;;;;7372574;19;20488;-68
2023/05/09 02:25:13;;;;;;;22.63;14.32;;;;;;;;;;7374277;19;20032;-68
2023/05/09 02:27:39;;;;;;;20.25;13.63;;;;;;;;;;7385914;19;20015;-68
2023/05/09 02:30:09;;;;;;;21.75;14.25;;;;;;;;;;7392298;19;20014;-68
2023/05/09 02:32:37;;;;;;;20.33;14.23;;;;;;;;;;7373940;19;20014;-68
2023/05/09 02:35:05;;;;;;;20.67;14.07;;;;;;;;;;7373769;19;20117;-69
2023/05/09 02:37:30;;;;;;;20.92;14.93;;;;;;;;;;7371627;19;20014;-68
2023/05/09 02:39:57;;;;;;;20.80;14.35;;;;;;;;;;7372195;19;20016;-68
2023/05/09 02:42:28;;;;;;;23.20;14.63;;;;;;;;;;7393904;19;20078;-68
2023/05/09 02:44:54;;;;;;;21.40;15.05;;;;;;;;;;7373356;19;20014;-68
2023/05/09 02:47:20;;;;;;;19.63;13.75;;;;;;;;;;7373408;19;20101;-68
2023/05/09 02:49:46;;;;;;;20.10;14.18;;;;;;;;;;7376228;19;20634;-68
2023/05/09 02:52:12;;;;;;;19.92;13.75;;;;;;;;;;7375677;19;20094;-68
2023/05/09 02:54:38;;;;;;;20.70;14.13;;;;;;;;;;7396240;19;20021;-67
2023/05/09 02:57:04;;;;;;;21.35;14.80;;;;;;;;;;7375677;19;20014;-67
2023/05/09 02:59:29;;;;;;;20.20;14.07;;;;;;;;;;7376057;19;20011;-67
2023/05/09 03:01:55;;;;;;;24.08;14.52;;;;;;;;;;7371282;19;20018;-68
2023/05/09 03:04:20;;;;;;;23.05;14.45;;;;;;;;;;7372387;19;20015;-67
2023/05/09 03:06:45;;;;;;;19.85;13.93;;;;;;;;;;7370987;19;20473;-67
2023/05/09 03:09:11;;;;;;;18.70;13.57;;;;;;;;;;7393259;19;20006;-68
2023/05/09 03:11:36;;;;;;;19.77;14.25;;;;;;;;;;7370121;19;20006;-68
2023/05/09 03:14:02;;;;;;;20.60;14.13;;;;;;;;;;7372259;19;20074;-68
2023/05/09 03:16:28;;;;;;;21.20;14.77;;;;;;;;;;7372354;19;20010;-68
2023/05/09 03:18:53;;;;;;;25.75;14.63;;;;;;;;;;7371691;19;20083;-68
2023/05/09 03:21:18;;;;;;;24.98;16.05;;;;;;;;;;7393127;19;20015;-68
2023/05/09 03:23:43;;;;;;;22.52;14.77;;;;;;;;;;7369069;19;20046;-68
2023/05/09 03:26:09;;;;;;;22.63;14.90;;;;;;;;;;7371486;19;20002;-68
2023/05/09 03:28:34;;;;;;;24.65;15.80;;;;;;;;;;7371424;19;20025;-69
2023/05/09 03:31:00;;;;;;;24.40;15.57;;;;;;;;;;7375306;19;20010;-68
2023/05/09 03:33:25;;;;;;;24.48;14.55;;;;;;;;;;7397383;19;20009;-68
2023/05/09 03:35:51;;;;;;;25.65;16.17;;;;;;;;;;7370804;19;20023;-68
2023/05/09 03:38:16;;;;;;;21.65;14.52;;;;;;;;;;7369368;19;20071;-68
2023/05/09 03:40:42;;;;;;;23.38;16.35;;;;;;;;;;7371307;19;20637;-69
2023/05/09 03:43:07;;;;;;;22.83;16.10;;;;;;;;;;7370123;19;20003;-69
2023/05/09 03:45:34;;;;;;;21.85;15.00;;;;;;;;;;7391978;19;20003;-69
2023/05/09 03:47:59;;;;;;;24.58;16.02;;;;;;;;;;7367827;19;20019;-69
2023/05/09 03:50:25;;;;;;;21.95;15.10;;;;;;;;;;7369175;19;19999;-68
2023/05/09 03:52:50;;;;;;;23.60;15.23;;;;;;;;;;7368588;19;20377;-68
2023/05/09 03:55:16;;;;;;;21.98;14.90;;;;;;;;;;7369046;19;20059;-69
2023/05/09 03:57:41;;;;;;;21.58;14.15;;;;;;;;;;7368812;19;20207;-69
2023/05/09 04:00:09;;;;;;;20.50;14.95;;;;;;;;;;7390556;19;19998;-68
2023/05/09 04:02:34;;;;;;;22.35;15.20;;;;;;;;;;7370557;19;19999;-69
2023/05/09 04:05:00;;;;;;;24.52;15.73;;;;;;;;;;7380756;19;20031;-69
2023/05/09 04:07:27;;;;;;;21.05;14.10;;;;;;;;;;7385606;19;20017;-68
2023/05/09 04:09:54;;;;;;;25.00;15.35;;;;;;;;;;7381908;19;20376;-69
2023/05/09 04:12:20;;;;;;;20.90;13.68;;;;;;;;;;7393196;19;20364;-68
2023/05/09 04:14:45;;;;;;;23.95;14.88;;;;;;;;;;7370061;19;20010;-68
2023/05/09 04:17:10;;;;;;;23.52;15.48;;;;;;;;;;7371922;19;20077;-68
2023/05/09 04:19:35;;;;;;;22.08;15.68;;;;;;;;;;7373586;19;20557;-68
2023/05/09 04:22:01;;;;;;;23.23;15.48;;;;;;;;;;7374726;19;20006;-68
2023/05/09 04:24:26;;;;;;;21.27;14.88;;;;;;;;;;7392517;19;20003;-69
2023/05/09 04:26:51;;;;;;;22.27;15.23;;;;;;;;;;7368488;19;20002;-69
2023/05/09 04:29:17;;;;;;;22.02;15.45;;;;;;;;;;7370529;19;20027;-69
2023/05/09 04:31:42;;;;;;;21.48;15.50;;;;;;;;;;7366378;19;20030;-69
2023/05/09 04:34:07;;;;;;;20.65;14.25;;;;;;;;;;7368381;19;20031;-69
2023/05/09 04:36:33;;;;;;;24.35;14.23;;;;;;;;;;7388322;19;20485;-69
2023/05/09 04:38:58;;;;;;;23.02;15.30;;;;;;;;;;7365172;19;20037;-69
2023/05/09 04:41:24;;;;;;;23.38;15.35;;;;;;;;;;7366160;19;20010;-69
2023/05/09 04:43:49;;;;;;;20.88;15.05;;;;;;;;;;7369484;19;20013;-68
2023/05/09 04:46:14;;;;;;;24.98;15.02;;;;;;;;;;7369370;19;20085;-68
2023/05/09 04:48:40;;;;;;;27.80;14.85;;;;;;;;;;7372387;19;19998;-69
2023/05/09 04:51:05;;;;;;;23.67;15.15;;;;;;;;;;7390446;19;20019;-68
2023/05/09 04:53:31;;;;;;;24.77;15.25;;;;;;;;;;7365084;19;20042;-68
2023/05/09 04:55:56;;;;;;;22.50;13.77;;;;;;;;;;7366326;19;20002;-68
2023/05/09 04:58:21;;;;;;;22.90;15.10;;;;;;;;;;7364997;19;20536;-67
2023/05/09 05:00:47;;;;;;;21.63;14.95;;;;;;;;;;7366462;19;20322;-68
2023/05/09 05:03:12;;;;;;;22.13;15.23;;;;;;;;;;7389216;19;20024;-68
2023/05/09 05:05:40;;;;;;;21.88;14.95;;;;;;;;;;7369748;19;20026;-68
2023/05/09 05:08:05;;;;;;;22.55;14.82;;;;;;;;;;7368084;19;20089;-68
2023/05/09 05:10:31;;;;;;;25.98;14.40;;;;;;;;;;7370513;19;20085;-69
2023/05/09 05:12:56;;;;;;;21.60;15.05;;;;;;;;;;7369589;19;20006;-69
2023/05/09 05:15:21;;;;;;;19.02;13.98;;;;;;;;;;7390240;19;20006;-69
2023/05/09 05:17:47;;;;;;;21.08;13.90;;;;;;;;;;7366701;19;20003;-68
2023/05/09 05:20:12;;;;;;;20.70;14.45;;;;;;;;;;7367662;19;20100;-68
2023/05/09 05:22:37;;;;;;;22.20;14.80;;;;;;;;;;7368742;19;20007;-69
2023/05/09 05:25:03;;;;;;;21.27;14.55;;;;;;;;;;7368982;19;20483;-68
2023/05/09 05:27:29;;;;;;;21.15;14.93;;;;;;;;;;7388110;19;20453;-68
2023/05/09 05:29:54;;;;;;;24.52;14.10;;;;;;;;;;7367290;19;20031;-69
2023/05/09 05:32:20;;;;;;;19.10;13.15;;;;;;;;;;7370604;19;20081;-69
2023/05/09 05:34:45;;;;;;;20.45;14.07;;;;;;;;;;7371942;19;20791;-69
2023/05/09 05:37:10;;;;;;;23.70;13.85;;;;;;;;;;7372899;19;20035;-69
2023/05/09 05:39:36;;;;;;;21.95;13.75;;;;;;;;;;7400938;19;20072;-68
2023/05/09 05:42:01;;;;;;;21.88;13.57;;;;;;;;;;7378695;19;20074;-69
2023/05/09 05:44:26;;;;;;;17.80;13.45;;;;;;;;;;7375005;19;20024;-69
2023/05/09 05:46:51;;;;;;;19.23;12.90;;;;;;;;;;7375683;19;20077;-68
2023/05/09 05:49:17;;;;;;;21.40;13.57;;;;;;;;;;7376442;19;20489;-68
2023/05/09 05:51:42;;;;;;;21.13;13.75;;;;;;;;;;7375820;19;20005;-69
2023/05/09 05:54:07;;;;;;;19.63;13.82;;;;;;;;;;7396889;19;20499;-73
2023/05/09 05:56:33;;;;;;;22.65;13.82;;;;;;;;;;7374181;19;20011;-69
2023/05/09 05:58:58;;;;;;;20.65;13.93;;;;;;;;;;7375033;19;20010;-69
2023/05/09 06:01:24;;;;;;;20.23;13.13;;;;;;;;;;7375258;19;20017;-69
2023/05/09 06:03:53;;;;;;;18.48;12.95;;;;;;;;;;7375611;19;20018;-69
2023/05/09 06:06:20;;;;;;;19.00;13.70;;;;;;;;;;7397603;19;20066;-69
2023/05/09 06:08:46;;;;;;;20.13;13.77;;;;;;;;;;7374733;19;20028;-69
2023/05/09 06:11:11;;;;;;;23.52;14.15;;;;;;;;;;7374123;19;20375;-69
2023/05/09 06:13:37;;;;;;;34.25;14.43;;;;;;;;;;7374527;19;20010;-69
2023/05/09 06:16:02;;;;;;;22.08;14.27;;;;;;;;;;7374576;19;20010;-69
2023/05/09 06:18:28;;;;;;;20.25;12.35;;;;;;;;;;7395556;19;20002;-69
2023/05/09 06:20:53;;;;;;;18.63;13.88;;;;;;;;;;7376320;19;20017;-68
2023/05/09 06:23:21;;;;;;;21.63;13.23;;;;;;;;;;7376296;19;20009;-68
2023/05/09 06:25:46;;;;;;;19.55;14.60;;;;;;;;;;7376034;19;20023;-68
2023/05/09 06:28:12;;;;;;;23.10;13.35;;;;;;;;;;7374084;19;20003;-68
2023/05/09 06:30:37;;;;;;;20.45;13.02;;;;;;;;;;7397586;19;19999;-69
2023/05/09 06:33:02;;;;;;;17.60;13.23;;;;;;;;;;7376255;19;20007;-69
2023/05/09 06:35:28;;;;;;;20.02;13.55;;;;;;;;;;7377491;19;20346;-68
2023/05/09 06:37:53;;;;;;;19.23;13.23;;;;;;;;;;7375046;19;20006;-69
2023/05/09 06:40:18;;;;;;;18.63;13.05;;;;;;;;;;7376273;19;20017;-69
2023/05/09 06:42:44;;;;;;;25.83;13.82;;;;;;;;;;7376611;19;20006;-69
2023/05/09 06:45:10;;;;;;;23.05;14.63;;;;;;;;;;7398267;19;20021;-68
2023/05/09 06:47:35;;;;;;;20.88;13.90;;;;;;;;;;7376052;19;20014;-68
2023/05/09 06:50:01;;;;;;;21.60;13.93;;;;;;;;;;7379612;19;20002;-68
2023/05/09 06:52:26;;;;;;;19.45;13.85;;;;;;;;;;7384048;19;20006;-68
2023/05/09 06:54:52;;;;;;;20.67;13.82;;;;;;;;;;7387444;19;20005;-68
2023/05/09 06:57:17;;;;;;;20.63;14.23;;;;;;;;;;7406367;19;20007;-68
2023/05/09 06:59:43;;;;;;;22.35;14.43;;;;;;;;;;7381371;19;20013;-68
2023/05/09 07:02:09;;;;;;;20.45;14.55;;;;;;;;;;7374292;19;20036;-68
2023/05/09 07:04:34;;;;;;;23.75;15.00;;;;;;;;;;7373550;19;20018;-68
2023/05/09 07:06:59;;;;;;;24.70;14.25;;;;;;;;;;7371789;19;19995;-68
2023/05/09 07:09:27;;;;;;;21.73;13.82;;;;;;;;;;7396507;19;20054;-68
2023/05/09 07:11:54;;;;;;;28.38;15.18;;;;;;;;;;7373774;19;20016;-68
2023/05/09 07:14:19;;;;;;;23.38;15.05;;;;;;;;;;7378120;19;20487;-68
2023/05/09 07:16:45;;;;;;;19.98;14.55;;;;;;;;;;7380170;19;20006;-68
2023/05/09 07:19:11;;;;;;;28.13;15.35;;;;;;;;;;7387515;19;20002;-68
2023/05/09 07:21:36;;;;;;;26.35;16.50;;;;;;;;;;7412392;19;20097;-68
2023/05/09 07:24:02;;;;;;;30.85;17.42;;;;;;;;;;7377674;19;20006;-69
2023/05/09 07:26:27;;;;;;;31.70;17.70;;;;;;;;;;7372907;19;20041;-68
2023/05/09 07:28:53;;;;;;;27.55;16.85;;;;;;;;;;7371805;19;20469;-67
2023/05/09 07:31:18;;;;;;;28.33;17.05;;;;;;;;;;7363018;19;20044;-68
2023/05/09 07:33:44;;;;;;;28.48;17.05;;;;;;;;;;7370740;19;20505;-68
2023/05/09 07:36:12;;;;;;;26.40;17.77;;;;;;;;;;7388636;19;20035;-68
2023/05/09 07:38:38;;;;;;;29.35;18.58;;;;;;;;;;7366336;19;20032;-69
2023/05/09 07:41:04;;;;;;;32.25;17.42;;;;;;;;;;7369914;19;20101;-70
2023/05/09 07:43:29;;;;;;;29.48;17.02;;;;;;;;;;7365868;19;20484;-69
2023/05/09 07:45:54;;;;;;;34.58;18.75;;;;;;;;;;7368839;19;20038;-69
2023/05/09 07:48:20;;;;;;;33.53;20.08;;;;;;;;;;7386648;19;20020;-70
2023/05/09 07:50:45;;;;;;;30.88;17.50;;;;;;;;;;7368418;19;19998;-69
2023/05/09 07:53:10;;;;;;;29.42;18.50;;;;;;;;;;7367545;19;20031;-69
2023/05/09 07:55:35;;;;;;;29.92;18.25;;;;;;;;;;7367220;19;20027;-69
2023/05/09 07:58:01;;;;;;;28.15;15.35;;;;;;;;;;7365507;19;20020;-70
2023/05/09 08:00:26;;;;;;;27.95;15.60;;;;;;;;;;7389466;19;20009;-70
2023/05/09 08:02:52;;;;;;;30.35;16.70;;;;;;;;;;7368502;19;20002;-69
2023/05/09 08:05:18;;;;;;;30.17;17.65;;;;;;;;;;7370345;19;20011;-68
2023/05/09 08:07:43;;;;;;;33.47;18.23;;;;;;;;;;7370464;19;20503;-69
2023/05/09 08:10:09;;;;;;;31.98;19.25;;;;;;;;;;7367452;19;20013;-70
2023/05/09 08:12:34;;;;;;;39.38;19.77;;;;;;;;;;7391301;19;20558;-68
2023/05/09 08:15:00;;;;;;;35.97;18.95;;;;;;;;;;7365927;19;20081;-69
2023/05/09 08:17:25;;;;;;;32.83;17.85;;;;;;;;;;7365787;19;20010;-69
2023/05/09 08:19:50;;;;;;;35.30;19.00;;;;;;;;;;7367485;19;20035;-69
2023/05/09 08:22:17;;;;;;;36.38;18.98;;;;;;;;;;7368280;19;20024;-68
2023/05/09 08:24:44;;;;;;;35.05;20.02;;;;;;;;;;7368804;19;20066;-66
2023/05/09 08:27:12;;;;;;;36.78;21.65;;;;;;;;;;7390124;19;20027;-63
2023/05/09 08:29:37;;;;;;;40.53;20.35;;;;;;;;;;7367264;19;20473;-61
2023/05/09 08:32:03;;;;;;;42.90;22.65;;;;;;;;;;7368340;19;20097;-72
2023/05/09 08:34:33;;;;;;;40.17;21.15;;;;;;;;;;7368468;19;20082;-71
2023/05/09 08:36:59;;;;;;;44.92;23.70;;;;;;;;;;7368743;19;21139;-72
2023/05/09 08:39:24;;;;;;;46.53;24.08;;;;;;;;;;7391716;19;20019;-72
2023/05/09 08:41:51;;;;;;;43.10;24.38;;;;;;;;;;7367466;19;20018;-72
2023/05/09 08:44:18;;;;;;;41.13;23.83;;;;;;;;;;7369963;19;20027;-72
2023/05/09 08:46:45;;;;;;;47.45;24.02;;;;;;;;;;7369376;19;20010;-71
2023/05/09 08:49:11;;;;;;;42.17;24.40;;;;;;;;;;7368657;19;20343;-72
2023/05/09 08:51:37;;;;;;;45.10;26.67;;;;;;;;;;7392675;19;20010;-72
2023/05/09 08:54:02;;;;;;;41.22;24.52;;;;;;;;;;7370853;19;20015;-72
2023/05/09 08:56:30;;;;;;;45.67;26.25;;;;;;;;;;7368525;19;20035;-72
2023/05/09 08:58:55;;;;;;;51.35;27.63;;;;;;;;;;7368531;19;20014;-72
2023/05/09 09:01:21;;;;;;;55.08;28.27;;;;;;;;;;7369133;19;20018;-72
2023/05/09 09:03:48;;;;;;;54.58;31.25;;;;;;;;;;7369691;19;20007;-72
2023/05/09 09:06:17;;;;;;;57.45;29.23;;;;;;;;;;7393618;19;20024;-72
2023/05/09 09:08:44;;;;;;;49.67;29.70;;;;;;;;;;7377509;19;20014;-72
2023/05/09 09:11:13;;;;;;;51.15;27.35;;;;;;;;;;7377718;19;20105;-71
2023/05/09 09:13:40;;;;;;;52.67;27.67;;;;;;;;;;7376039;19;20009;-70
2023/05/09 09:16:10;;;;;;;50.90;27.77;;;;;;;;;;7376154;19;20013;-71
2023/05/09 09:18:35;;;;;;;47.28;27.08;;;;;;;;;;7397767;19;20009;-71
2023/05/09 09:21:14;;;;;;;48.40;28.15;;;;;;;;;;7376061;19;20015;-72
2023/05/09 09:23:41;;;;;;;49.95;28.85;;;;;;;;;;7376177;19;20357;-73
2023/05/09 09:26:07;;;;;;;54.78;30.13;;;;;;;;;;7374044;19;20032;-72
2023/05/09 09:28:33;;;;;;;51.63;29.17;;;;;;;;;;7374379;19;20036;-72
2023/05/09 09:30:59;;;;;;;51.88;31.48;;;;;;;;;;7376327;19;20528;-72
2023/05/09 09:33:26;;;;;;;55.28;31.85;;;;;;;;;;7398082;19;19998;-71
2023/05/09 09:35:55;;;;;;;50.65;29.13;;;;;;;;;;7375185;19;20002;-73
2023/05/09 09:38:22;;;;;;;52.10;30.77;;;;;;;;;;7373528;19;20002;-73
2023/05/09 09:40:54;;;;;;;52.25;30.60;;;;;;;;;;7373543;19;20010;-73
2023/05/09 09:43:26;;;;;;;50.45;30.70;;;;;;;;;;7375691;19;20006;-73
2023/05/09 09:45:52;;;;;;;48.80;29.70;;;;;;;;;;7374921;19;20023;-73
2023/05/09 09:48:22;;;;;;;49.22;30.35;;;;;;;;;;7393651;19;20003;-73
2023/05/09 09:50:47;;;;;;;55.25;29.85;;;;;;;;;;7374980;19;20476;-73
2023/05/09 09:53:13;;;;;;;51.22;30.08;;;;;;;;;;7374608;19;20011;-73
2023/05/09 09:55:48;;;;;;;48.78;29.02;;;;;;;;;;7374835;19;20085;-72
2023/05/09 09:58:23;;;;;;;46.53;29.10;;;;;;;;;;7372766;19;20086;-72
2023/05/09 10:01:07;;;;;;;49.97;30.08;;;;;;;;;;7372574;19;20019;-72
2023/05/09 10:03:40;;;;;;;49.83;31.17;;;;;;;;;;7396687;19;20001;-72
2023/05/09 10:06:11;;;;;;;48.08;30.85;;;;;;;;;;7374625;19;20010;-72
2023/05/09 10:08:36;;;;;;;48.35;30.77;;;;;;;;;;7374547;19;20028;-72
2023/05/09 10:11:02;;;;;;;52.13;30.13;;;;;;;;;;7380016;19;20730;-72
2023/05/09 10:13:28;;;;;;;47.53;28.60;;;;;;;;;;7377882;19;20062;-72
2023/05/09 10:15:56;;;;;;;44.00;28.88;;;;;;;;;;7376048;19;20006;-72
2023/05/09 10:18:27;;;;;;;42.80;28.15;;;;;;;;;;7389653;19;20038;-71
2023/05/09 10:20:53;;;;;;;39.95;28.13;;;;;;;;;;7374310;19;20022;-71
2023/05/09 10:23:20;;;;;;;44.17;28.73;;;;;;;;;;7374710;19;20067;-72
2023/05/09 10:26:06;;;;;;;43.17;27.30;;;;;;;;;;7372009;19;20017;-71
2023/05/09 10:28:34;;;;;;;42.67;25.83;;;;;;;;;;7373255;19;20391;-71
2023/05/09 10:31:22;;;;;;;37.72;26.33;;;;;;;;;;7374555;19;20030;-73
2023/05/09 10:33:49;;;;;;;33.63;24.00;;;;;;;;;;7375030;19;20422;-75
2023/05/09 10:36:16;;;;;;;39.40;25.70;;;;;;;;;;7394400;19;20006;-73
2023/05/09 10:38:42;;;;;;;36.83;26.08;;;;;;;;;;7364508;19;20017;-72
2023/05/09 10:41:09;;;;;;;45.25;28.35;;;;;;;;;;7369406;19;20034;-72
2023/05/09 10:43:35;;;;;;;37.70;25.92;;;;;;;;;;7370476;19;20037;-73
2023/05/09 10:46:02;;;;;;;38.00;25.33;;;;;;;;;;7369142;19;20431;-74
2023/05/09 10:48:27;;;;;;;41.97;25.95;;;;;;;;;;7392029;19;19999;-73
2023/05/09 10:50:54;;;;;;;42.03;27.90;;;;;;;;;;7369296;19;20054;-72
2023/05/09 10:53:23;;;;;;;37.25;26.08;;;;;;;;;;7368649;19;20723;-74
2023/05/09 10:55:54;;;;;;;38.10;25.92;;;;;;;;;;7370775;19;20007;-76
2023/05/09 10:58:20;;;;;;;44.53;24.60;;;;;;;;;;7368702;19;20017;-74
2023/05/09 11:00:50;;;;;;;35.50;25.05;;;;;;;;;;7371075;19;20393;-76
2023/05/09 11:03:18;;;;;;;35.65;24.48;;;;;;;;;;7393431;19;19999;-77
2023/05/09 11:05:44;;;;;;;40.15;26.23;;;;;;;;;;7380996;19;20005;-71
2023/05/09 11:08:26;;;;;;;34.60;23.08;;;;;;;;;;7377277;19;20040;-73
2023/05/09 11:10:56;;;;;;;33.38;21.98;;;;;;;;;;7386424;19;19999;-71
2023/05/09 11:13:23;;;;;;;27.30;18.77;;;;;;;;;;7382630;19;20010;-74
2023/05/09 11:15:49;;;;;;;36.25;17.60;;;;;;;;;;7374924;19;20497;-71
2023/05/09 11:18:15;;;;;;;21.50;15.02;;;;;;;;;;7391957;19;19999;-72
2023/05/09 11:20:45;;;;;;;22.42;16.05;;;;;;;;;;7370775;19;20010;-71
2023/05/09 11:23:10;;;;;;;26.75;15.73;;;;;;;;;;7370219;19;20018;-73
2023/05/09 11:25:38;;;;;;;27.40;16.73;;;;;;;;;;7371246;19;20014;-74
2023/05/09 11:28:03;;;;;;;18.27;13.52;;;;;;;;;;7367962;19;20010;-74
2023/05/09 11:30:40;;;;;;;21.20;14.68;;;;;;;;;;7390700;19;20339;-73
2023/05/09 11:33:19;;;;;;;26.02;19.05;;;;;;;;;;7374794;19;20393;-72
2023/05/09 11:35:45;;;;;;;26.80;18.65;;;;;;;;;;7371803;19;20014;-74
2023/05/09 11:38:19;;;;;;;28.20;16.13;;;;;;;;;;7372323;19;20092;-73
2023/05/09 11:40:45;;;;;;;25.83;16.20;;;;;;;;;;7376141;19;20014;-73
2023/05/09 11:43:11;;;;;;;24.08;16.35;;;;;;;;;;7374018;19;20873;-73
2023/05/09 11:45:37;;;;;;;20.50;13.65;;;;;;;;;;7394238;19;20010;-72
2023/05/09 11:48:07;;;;;;;23.80;16.35;;;;;;;;;;7366730;19;20045;-73
2023/05/09 11:50:33;;;;;;;27.02;16.27;;;;;;;;;;7369620;19;20011;-73
2023/05/09 11:52:58;;;;;;;23.52;16.65;;;;;;;;;;7369393;19;20023;-73
2023/05/09 11:55:24;;;;;;;32.08;16.67;;;;;;;;;;7369967;19;20576;-74
2023/05/09 11:57:51;;;;;;;22.35;16.52;;;;;;;;;;7367695;19;20006;-74
2023/05/09 12:00:19;;;;;;;25.40;17.17;;;;;;;;;;7394425;19;20013;-74
2023/05/09 12:02:45;;;;;;;24.60;14.85;;;;;;;;;;7382847;19;20055;-74
2023/05/09 12:05:16;;;;;;;24.42;15.25;;;;;;;;;;7385535;19;20083;-74
2023/05/09 12:07:42;;;;;;;23.60;14.80;;;;;;;;;;7363845;19;20065;-72
2023/05/09 12:10:08;;;;;;;27.15;14.15;;;;;;;;;;7370826;19;20002;-74
2023/05/09 12:12:35;;;;;;;22.67;16.17;;;;;;;;;;7395578;19;20066;-73
2023/05/09 12:15:06;;;;;;;28.10;16.15;;;;;;;;;;7372368;19;20019;-73
2023/05/09 12:17:31;;;;;;;23.30;14.30;;;;;;;;;;7368196;19;20021;-75
2023/05/09 12:19:59;;;;;;;21.08;14.95;;;;;;;;;;7371530;19;20424;-72
2023/05/09 12:22:24;;;;;;;21.75;14.25;;;;;;;;;;7363954;19;20006;-73
2023/05/09 12:24:49;;;;;;;22.13;13.15;;;;;;;;;;7361840;19;20007;-74
2023/05/09 12:33:29;;;;;;;23.95;12.43;;;;;;;;;;7419711;19;20405;-71
2023/05/09 12:36:02;;;;;;;14.88;11.45;;;;;;;;;;7399300;19;20018;-62
2023/05/09 12:38:27;;;;;;;16.05;11.35;;;;;;;;;;7399252;19;20027;-61
2023/05/09 12:41:03;;;;;;;17.60;12.85;;;;;;;;;;7399082;19;20014;-61
2023/05/09 12:43:33;;;;;;;21.33;14.50;;;;;;;;;;7400490;19;20790;-61
2023/05/09 12:46:00;;;;;;;20.00;13.90;;;;;;;;;;7400643;19;20015;-60
2023/05/09 12:48:26;;;;;;;19.20;12.50;;;;;;;;;;7425039;19;20002;-60
2023/05/09 12:50:51;;;;;;;16.67;13.27;;;;;;;;;;7399584;19;20029;-58
2023/05/09 12:53:30;;;;;;;19.80;13.00;;;;;;;;;;7405820;19;20378;-57
2023/05/09 12:56:03;;;;;;;16.75;11.82;;;;;;;;;;7397135;19;19998;-59
2023/05/09 12:58:30;;;;;;;14.57;10.52;;;;;;;;;;7398996;19;20006;-59
2023/05/09 13:00:56;;;;;;;16.17;11.32;;;;;;;;;;7397075;19;19998;-60
2023/05/09 13:03:24;;;;;;;13.45;9.93;;;;;;;;;;7423623;19;20353;-60
2023/05/09 13:05:58;;;;;;;16.42;10.63;;;;;;;;;;7402411;19;20053;-58
2023/05/09 13:08:23;;;;;;;16.35;10.95;;;;;;;;;;7402281;19;20006;-58
2023/05/09 13:10:49;;;;;;;15.10;10.63;;;;;;;;;;7402563;19;20123;-60
2023/05/09 13:13:15;;;;;;;16.27;10.68;;;;;;;;;;7400271;19;20441;-61
2023/05/09 13:15:42;;;;;;;23.77;10.48;;;;;;;;;;7397893;19;20094;-58
2023/05/09 13:18:07;;;;;;;12.27;9.65;;;;;;;;;;7422340;19;20080;-59
2023/05/09 13:20:32;;;;;;;13.02;10.13;;;;;;;;;;7401330;19;20459;-57
2023/05/09 13:22:58;;;;;;;17.52;9.98;;;;;;;;;;7401218;19;20077;-61
2023/05/09 13:25:23;;;;;;;18.83;9.88;;;;;;;;;;7402007;19;20725;-60
2023/05/09 13:27:48;;;;;;;17.30;9.48;;;;;;;;;;7398141;19;20021;-57
2023/05/09 13:30:14;;;;;;;18.40;12.40;;;;;;;;;;7420504;19;19998;-61
2023/05/09 13:32:39;;;;;;;18.30;12.75;;;;;;;;;;7398487;19;20006;-59
2023/05/09 13:35:06;;;;;;;16.58;12.18;;;;;;;;;;7402602;19;20109;-59
2023/05/09 13:37:34;;;;;;;18.52;11.90;;;;;;;;;;7400854;19;20026;-60
2023/05/09 13:40:00;;;;;;;18.83;12.18;;;;;;;;;;7402054;19;20003;-59
2023/05/09 13:42:26;;;;;;;15.15;10.85;;;;;;;;;;7422294;19;20724;-58
2023/05/09 13:44:52;;;;;;;18.02;11.93;;;;;;;;;;7372085;19;20467;-61
2023/05/09 13:47:17;;;;;;;16.75;12.15;;;;;;;;;;7370756;19;20014;-59
2023/05/09 13:49:42;;;;;;;18.63;12.23;;;;;;;;;;7372557;19;20010;-61
2023/05/09 13:52:08;;;;;;;20.30;12.38;;;;;;;;;;7373009;19;20007;-72
2023/05/09 13:54:34;;;;;;;24.92;11.63;;;;;;;;;;7394258;19;20567;-73
2023/05/09 13:57:05;;;;;;;25.70;11.07;;;;;;;;;;7371590;19;20014;-72
2023/05/09 13:59:31;;;;;;;18.00;11.45;;;;;;;;;;7373743;19;20011;-73
2023/05/09 14:02:00;;;;;;;14.25;10.30;;;;;;;;;;7372757;19;20010;-72
2023/05/09 14:04:26;;;;;;;16.33;10.57;;;;;;;;;;7371886;19;20027;-72
2023/05/09 14:06:52;;;;;;;13.70;10.45;;;;;;;;;;7368820;19;20007;-72
2023/05/09 14:09:18;;;;;;;14.25;10.27;;;;;;;;;;7394935;19;20003;-71
2023/05/09 14:11:43;;;;;;;16.13;10.95;;;;;;;;;;7371917;19;20014;-72
2023/05/09 14:14:09;;;;;;;14.95;11.32;;;;;;;;;;7378471;19;20054;-71
2023/05/09 14:16:34;;;;;;;16.67;10.73;;;;;;;;;;7366861;19;20006;-70
2023/05/09 14:19:00;;;;;;;15.25;10.23;;;;;;;;;;7374246;19;20452;-72
2023/05/09 14:21:26;;;;;;;23.58;11.15;;;;;;;;;;7396344;19;20563;-72